Pueblo, CO (81001)

1:51 AM MST on December 04, 2016 (GMT -0700)
Belmont - Boomer Weather | | Change Station

Elev 4869 ft 38.30 °N, 104.58 °W | Updated 1 second ago

Clear
Clear
20.6 °F
Feels Like 21 °F
N
0.0
Wind Variable Wind from NNE
Gusts 0.0 mph

Today
High -- | Low -- °F
--% Chance of Precip.
Yesterday
High -- | Low -- °F
Precip. -- in
Pressure 30.12 in
Visibility 10.0 miles
Clouds Clear
Windchill 21 °F
Dew Point 12 °F
Humidity 69%
Rainfall 0.00 in
Snow Depth Not available.
6:59 AM 4:37 PM
Waxing Crescent, 21% visible
METAR KPUB 040753Z AUTO 00000KT 10SM CLR M08/M12 A3005 RMK AO2 SLP198 T10831117
Pressure 30.12 in
Visibility 10.0 miles
Clouds Clear
Windchill 21 °F
Dew Point 12 °F
Humidity 69%
Rainfall 0.00 in
Snow Depth Not available.
6:59 AM 4:37 PM
Waxing Crescent, 21% visible
METAR KPUB 040753Z AUTO 00000KT 10SM CLR M08/M12 A3005 RMK AO2 SLP198 T10831117

10-Day Weather Forecast

Almanac

Astronomy

Dec. 04, 2016 Rise Set
Actual Time
Civil Twilight
Nautical Twilight
Astronomical Twilight
Moon
Length of Visible Light
Length of Day
Tomorrow will be .
, % of the Moon is Illuminated

Today's Extremes

State Highs State Lows

Community

WunderPhotos

Upload Photos

1,955,587 photos uploaded!

WunderBlog® & News

Nearby

Air Quality

  Air Quality AQ Index Pollutant
Not available.

Snow Depth

Station Depth Elevation

Earthquake Activity

City Distance Mag. Time & Date
Minimum magnitude displayed is 2.5.

Coastal Water Temperatures

Place Temperature

Stations

Nearby Weather Stations

Station Location Temp. Windchill Dew Point Humidity Wind Precip. Elev Updated Type
                   

Watches & Warnings

There are currently no watches in effect.